Oslo, Norvegia

04:00 AM CEST on iulie 29, 2016 (GMT +0200)
Gardermoen | | Change Station

Elev 679 ft 60.21 °N, 11.08 °E | Updated 10 minutes ago

Scattered Clouds
Nori risipiţi
55 °F
Feels Like 55 °F
N
4
Vânt variabil Vânt from SSV

astăzi
High -- | Low -- °F
--% Chance of Precip.
Ieri
High -- | Low -- °F
Precip. -- inch
Presiunea 29.80 inch
Vizibilitatea 6.2 mile
Nori Nori risipiţi 1300 ft
Punctul de rouă 54 °F
Umiditatea 94%
Precipitaţii 0.00 inch
Adâncimea zăpezii Not available.
4:50 AM 9:54 PM
Semilună în descreştere, 26% visible
METAR ENGM 290150Z 20003KT 9999 SCT013 13/12 Q1009
Presiunea 29.80 inch
Vizibilitatea 6.2 mile
Nori Nori risipiţi 1300 ft
Punctul de rouă 54 °F
Umiditatea 94%
Precipitaţii 0.00 inch
Adâncimea zăpezii Not available.
4:50 AM 9:54 PM
Semilună în descreştere, 26% visible
METAR ENGM 290150Z 20003KT 9999 SCT013 13/12 Q1009

10-Day Weather Forecast

×

Almanac

Astronomie

Jul. 29, 2016 Răsărit Apus
Timpul Actual
Crepusculul Civil
Crepusculul nautic
Răsărit Astronomic
Luna
Durata zilei lumină
Lungimea zilei
Tomorrow will be .
, % of the Moon is Illuminated

Extremele de azi

Country Highs Country Lows

Community

WunderPhotos

Upload Photos

1,928,255 photos uploaded!

WunderBlog® & News

Nearby

Calitatea aerului

  Calitatea aerului Index de calitate a aerului Poluat
Not available.

Adâncimea zapezii

Station Depth Elevation

Earthquake Activity

Oraş Distance Mag. Time & Date
Minimum magnitude displayed is 2.5.

Coastal Water Temperatures

Locul Temperatura

Stations

Nearby Weather Stations

Locaţia staţiei Temp Vânt rece Punctul de rouă Umiditatea Vânt Precip. Elev Actualizare Type